Time;durP1;ratioP1;P1;durP2;ratioP2;P2;SDS_P1;SDS_P2;PMS_P1;PMS_P2;Temp;Humidity;BMP_temperature;BMP_pressure;BME280_temperature;BME280_humidity;BME280_pressure;Samples;Min_cycle;Max_cycle;Signal;HPM_P1;HPM_P2
2020/12/26 00:01:19;;;;;;;7.00;5.03;;;5.50;75.20;;;;;;5038948;28;20053;-63
2020/12/26 00:03:46;;;;;;;6.97;5.40;;;5.50;75.10;;;;;;5051610;28;20033;-64
2020/12/26 00:06:15;;;;;;;7.43;4.97;;;5.50;75.00;;;;;;5049693;28;20492;-64
2020/12/26 00:08:42;;;;;;;7.43;4.75;;;5.50;75.50;;;;;;5047504;28;20024;-64
2020/12/26 00:11:09;;;;;;;5.63;4.22;;;5.50;74.90;;;;;;5038984;28;20040;-64
2020/12/26 00:13:35;;;;;;;6.80;5.00;;;5.40;74.80;;;;;;5038770;28;20116;-64
2020/12/26 00:16:09;;;;;;;6.90;5.00;;;5.40;74.90;;;;;;5051566;28;20099;-64
2020/12/26 00:18:36;;;;;;;7.88;4.40;;;5.40;74.60;;;;;;5043328;28;20033;-64
2020/12/26 00:21:12;;;;;;;6.32;4.72;;;5.40;74.70;;;;;;5048614;28;20350;-64
2020/12/26 00:23:38;;;;;;;5.30;4.40;;;5.40;74.70;;;;;;5044760;28;20028;-64
2020/12/26 00:26:04;;;;;;;7.00;4.80;;;5.40;74.60;;;;;;5045763;28;20111;-64
2020/12/26 00:28:30;;;;;;;6.03;4.53;;;5.30;74.50;;;;;;5044742;28;20029;-64
2020/12/26 00:30:56;;;;;;;7.38;4.43;;;5.30;74.40;;;;;;5051510;28;20040;-64
2020/12/26 00:33:22;;;;;;;6.28;4.68;;;5.20;74.50;;;;;;5041016;28;20025;-64
2020/12/26 00:35:48;;;;;;;5.80;4.57;;;5.20;74.70;;;;;;5048700;28;20505;-64
2020/12/26 00:38:14;;;;;;;6.38;4.63;;;5.20;74.80;;;;;;5049768;28;20036;-65
2020/12/26 00:40:39;;;;;;;7.55;4.78;;;5.20;74.70;;;;;;5049130;28;20561;-65
2020/12/26 00:43:05;;;;;;;7.13;4.88;;;5.20;74.80;;;;;;5041999;28;20029;-64
2020/12/26 00:45:31;;;;;;;6.60;4.78;;;5.20;74.80;;;;;;5051458;28;20412;-64
2020/12/26 00:47:57;;;;;;;6.22;4.38;;;5.20;74.80;;;;;;5051814;28;20084;-66
2020/12/26 00:50:22;;;;;;;5.15;3.90;;;5.20;74.70;;;;;;5050272;28;20033;-64
2020/12/26 00:52:48;;;;;;;7.32;4.28;;;5.20;74.60;;;;;;5035998;28;20091;-64
2020/12/26 00:55:14;;;;;;;5.03;4.15;;;5.20;74.50;;;;;;5046858;28;20373;-64
2020/12/26 00:57:42;;;;;;;6.70;4.18;;;5.20;74.50;;;;;;5036917;28;20034;-64
2020/12/26 01:00:08;;;;;;;6.10;4.60;;;5.20;74.50;;;;;;5047661;28;20115;-64
2020/12/26 01:02:34;;;;;;;5.72;3.72;;;5.20;74.60;;;;;;5049040;28;20049;-64
2020/12/26 01:05:00;;;;;;;5.55;3.90;;;5.20;74.40;;;;;;5045475;28;20516;-64
2020/12/26 01:07:26;;;;;;;5.10;4.10;;;5.20;74.40;;;;;;5045186;28;20181;-64
2020/12/26 01:09:52;;;;;;;4.82;3.72;;;5.20;74.30;;;;;;5040632;28;20373;-64
2020/12/26 01:12:17;;;;;;;5.88;4.22;;;5.10;74.40;;;;;;5036278;28;20085;-64
2020/12/26 01:14:43;;;;;;;7.47;4.10;;;5.10;74.40;;;;;;5047692;28;20029;-64
2020/12/26 01:17:10;;;;;;;5.65;3.97;;;5.10;74.30;;;;;;5043869;28;20029;-64
2020/12/26 01:19:36;;;;;;;4.65;3.70;;;5.20;74.40;;;;;;5035335;28;20088;-64
2020/12/26 01:22:02;;;;;;;6.07;3.53;;;5.10;74.50;;;;;;5050548;28;20531;-64
2020/12/26 01:24:28;;;;;;;4.65;3.58;;;5.20;74.20;;;;;;5051621;28;20021;-64
2020/12/26 01:26:54;;;;;;;5.28;3.90;;;5.10;74.20;;;;;;5051862;28;20028;-64
2020/12/26 01:29:19;;;;;;;4.75;3.88;;;5.20;74.20;;;;;;5059500;28;20068;-64
2020/12/26 01:31:52;;;;;;;5.90;4.70;;;5.10;74.10;;;;;;5055272;28;20029;-64
2020/12/26 01:34:19;;;;;;;5.32;4.30;;;5.10;74.10;;;;;;5050445;28;20028;-64
2020/12/26 01:36:52;;;;;;;4.93;3.92;;;5.10;74.40;;;;;;5067302;28;20039;-64
2020/12/26 01:39:20;;;;;;;6.63;4.20;;;5.10;74.20;;;;;;5063330;28;20032;-64
2020/12/26 01:41:55;;;;;;;6.35;4.20;;;5.10;74.30;;;;;;5049612;28;20465;-64
2020/12/26 01:44:22;;;;;;;6.60;4.07;;;5.10;74.30;;;;;;5052741;28;20496;-64
2020/12/26 01:46:49;;;;;;;6.10;4.43;;;5.10;74.70;;;;;;5055037;28;20028;-64
2020/12/26 01:49:20;;;;;;;5.65;4.35;;;5.10;74.40;;;;;;5057705;28;20032;-64
2020/12/26 01:51:47;;;;;;;6.90;4.18;;;5.10;74.30;;;;;;5048094;28;20056;-64
2020/12/26 01:54:12;;;;;;;6.40;4.70;;;5.00;74.30;;;;;;5059828;28;20205;-64
2020/12/26 01:56:42;;;;;;;5.95;4.72;;;5.00;74.40;;;;;;5052927;28;20028;-64
2020/12/26 01:59:08;;;;;;;10.63;4.30;;;5.10;74.60;;;;;;5053935;28;20449;-64
2020/12/26 02:01:38;;;;;;;6.03;4.50;;;5.00;74.70;;;;;;5053891;28;20060;-64
2020/12/26 02:04:05;;;;;;;5.07;3.90;;;5.00;74.50;;;;;;5055212;28;20025;-64
2020/12/26 02:06:50;;;;;;;4.97;4.25;;;5.00;74.70;;;;;;5051294;28;20017;-64
2020/12/26 02:09:16;;;;;;;6.80;4.75;;;5.10;74.70;;;;;;5054224;28;20453;-64
2020/12/26 02:11:42;;;;;;;5.30;4.28;;;5.10;74.80;;;;;;5040960;28;20029;-64
2020/12/26 02:14:08;;;;;;;5.40;4.20;;;5.10;74.70;;;;;;5060027;28;20028;-64
2020/12/26 02:16:46;;;;;;;5.03;4.43;;;5.00;74.70;;;;;;5050792;28;20037;-64
2020/12/26 02:19:13;;;;;;;6.30;4.78;;;5.00;74.60;;;;;;5062587;28;20024;-63
2020/12/26 02:21:40;;;;;;;5.82;4.40;;;5.00;75.00;;;;;;5045967;28;20487;-64
2020/12/26 02:24:06;;;;;;;5.65;4.45;;;5.00;74.70;;;;;;5041431;28;20074;-64
2020/12/26 02:26:32;;;;;;;5.95;4.60;;;5.00;74.80;;;;;;5062679;28;20025;-64
2020/12/26 02:28:58;;;;;;;5.97;4.45;;;5.00;74.90;;;;;;5047544;28;20515;-64
2020/12/26 02:31:24;;;;;;;6.85;4.60;;;5.00;75.20;;;;;;5040403;28;20474;-64
2020/12/26 02:33:51;;;;;;;6.30;4.25;;;5.00;75.00;;;;;;5018677;28;20033;-64
2020/12/26 02:36:17;;;;;;;7.70;5.00;;;5.00;75.00;;;;;;5013906;28;20037;-64
2020/12/26 02:38:43;;;;;;;6.93;4.28;;;5.00;75.10;;;;;;5022110;28;20413;-64
2020/12/26 02:41:08;;;;;;;6.55;4.47;;;5.00;75.20;;;;;;5025983;28;20030;-64
2020/12/26 02:43:35;;;;;;;5.13;3.95;;;5.00;75.20;;;;;;5014396;28;20029;-64
2020/12/26 02:46:00;;;;;;;7.38;5.00;;;5.10;75.30;;;;;;5027723;28;20064;-64
2020/12/26 02:48:26;;;;;;;6.28;4.75;;;5.10;75.20;;;;;;5045269;28;20335;-64
2020/12/26 02:50:53;;;;;;;5.35;4.38;;;5.10;75.20;;;;;;5025818;28;20025;-64
2020/12/26 02:53:19;;;;;;;5.72;4.68;;;5.10;75.20;;;;;;5019608;28;20494;-64
2020/12/26 02:55:44;;;;;;;6.45;4.70;;;5.10;75.20;;;;;;5029611;28;20022;-64
2020/12/26 02:58:10;;;;;;;6.25;4.80;;;5.10;75.10;;;;;;5029575;28;20088;-64
2020/12/26 03:00:36;;;;;;;5.85;4.40;;;5.20;75.00;;;;;;5026850;28;20026;-64
2020/12/26 03:03:02;;;;;;;6.20;4.38;;;5.10;75.00;;;;;;5026796;28;20109;-64
2020/12/26 03:05:28;;;;;;;5.30;4.13;;;5.20;75.00;;;;;;5028454;28;20073;-64
2020/12/26 03:07:54;;;;;;;7.20;4.53;;;5.20;75.00;;;;;;5017779;28;20022;-64
2020/12/26 03:10:20;;;;;;;7.03;4.20;;;5.20;75.00;;;;;;5013826;28;20029;-64
2020/12/26 03:12:45;;;;;;;7.28;4.38;;;5.20;74.70;;;;;;5026591;28;20021;-64
2020/12/26 03:15:11;;;;;;;5.43;4.18;;;5.20;74.70;;;;;;5013972;28;20028;-64
2020/12/26 03:17:37;;;;;;;4.72;4.15;;;5.30;74.80;;;;;;5024159;28;20089;-64
2020/12/26 03:20:04;;;;;;;6.50;4.20;;;5.30;74.70;;;;;;5038820;28;20021;-64
2020/12/26 03:22:30;;;;;;;6.82;3.85;;;5.30;74.70;;;;;;5039388;28;20033;-64
2020/12/26 03:24:56;;;;;;;5.15;4.13;;;5.30;74.40;;;;;;5018278;28;20347;-64
2020/12/26 03:27:22;;;;;;;5.55;4.40;;;5.30;74.20;;;;;;5025873;28;20029;-64
2020/12/26 03:29:50;;;;;;;7.57;5.13;;;5.30;74.30;;;;;;5038257;28;20045;-64
2020/12/26 03:32:17;;;;;;;9.75;5.78;;;5.30;74.20;;;;;;5047547;28;20045;-64
2020/12/26 03:34:42;;;;;;;10.18;6.13;;;5.40;74.20;;;;;;5056684;28;20036;-64
2020/12/26 03:37:08;;;;;;;7.45;5.10;;;5.40;74.00;;;;;;5037196;28;20034;-64
2020/12/26 03:39:35;;;;;;;7.47;5.43;;;5.40;73.80;;;;;;5059647;28;20381;-64
2020/12/26 03:42:09;;;;;;;7.57;4.95;;;5.40;73.50;;;;;;5041686;28;20052;-64
2020/12/26 03:44:35;;;;;;;6.80;4.80;;;5.40;73.60;;;;;;5050523;28;20029;-64
2020/12/26 03:47:04;;;;;;;7.40;4.32;;;5.40;73.50;;;;;;5052829;28;20128;-64
2020/12/26 03:49:30;;;;;;;7.78;5.13;;;5.40;73.50;;;;;;5051486;28;20017;-64
2020/12/26 03:51:56;;;;;;;7.43;4.70;;;5.40;73.60;;;;;;5046433;28;20025;-64
2020/12/26 03:54:21;;;;;;;6.47;4.35;;;5.40;73.60;;;;;;5045922;28;20025;-64
2020/12/26 03:56:48;;;;;;;7.15;4.60;;;5.40;73.50;;;;;;5052544;28;20021;-64
2020/12/26 03:59:13;;;;;;;6.28;4.35;;;5.40;73.50;;;;;;5053314;28;20025;-64
2020/12/26 04:01:39;;;;;;;8.45;5.03;;;5.40;73.40;;;;;;5055355;28;20469;-64
2020/12/26 04:04:05;;;;;;;7.70;4.70;;;5.40;73.40;;;;;;5051070;28;20018;-64
2020/12/26 04:06:31;;;;;;;6.75;4.80;;;5.40;73.30;;;;;;5043345;28;20032;-64
2020/12/26 04:08:57;;;;;;;7.00;4.68;;;5.40;73.30;;;;;;5054259;28;20096;-64
2020/12/26 04:11:23;;;;;;;8.15;4.75;;;5.40;73.20;;;;;;5044464;28;20045;-64
2020/12/26 04:13:49;;;;;;;8.57;5.22;;;5.40;73.20;;;;;;5038632;28;20060;-64
2020/12/26 04:16:15;;;;;;;7.95;4.88;;;5.40;72.90;;;;;;5056655;28;20416;-64
2020/12/26 04:18:41;;;;;;;6.90;4.47;;;5.40;73.00;;;;;;5053865;28;20120;-64
2020/12/26 04:21:07;;;;;;;6.57;4.63;;;5.40;73.00;;;;;;5054690;28;20067;-64
2020/12/26 04:23:33;;;;;;;8.50;4.88;;;5.40;73.00;;;;;;5055310;28;20104;-64
2020/12/26 04:25:59;;;;;;;9.38;5.30;;;5.40;72.90;;;;;;5073349;28;20067;-64
2020/12/26 04:28:25;;;;;;;11.73;6.22;;;5.40;72.80;;;;;;5047296;28;20347;-64
2020/12/26 04:30:51;;;;;;;11.82;6.40;;;5.40;73.40;;;;;;5042764;28;20116;-64
2020/12/26 04:33:16;;;;;;;16.75;7.57;;;5.40;72.70;;;;;;5046369;28;20056;-64
2020/12/26 04:35:42;;;;;;;12.00;5.43;;;5.40;72.70;;;;;;5054684;28;20075;-64
2020/12/26 04:38:08;;;;;;;11.93;6.10;;;5.40;72.70;;;;;;5061968;28;20107;-64
2020/12/26 04:40:34;;;;;;;10.43;5.70;;;5.30;72.50;;;;;;5056501;28;20032;-64
2020/12/26 04:43:01;;;;;;;9.00;6.18;;;5.30;72.70;;;;;;5052920;28;20023;-64
2020/12/26 04:45:27;;;;;;;12.25;7.03;;;5.30;72.70;;;;;;5068005;28;20057;-64
2020/12/26 04:48:01;;;;;;;7.68;5.65;;;5.30;72.70;;;;;;5066102;28;20025;-64
2020/12/26 04:50:30;;;;;;;8.43;5.40;;;5.30;72.60;;;;;;5047405;28;20018;-64
2020/12/26 04:53:04;;;;;;;7.70;5.45;;;5.30;72.50;;;;;;5043725;28;20029;-64
2020/12/26 04:55:34;;;;;;;9.35;4.97;;;5.30;72.40;;;;;;5043578;28;20083;-64
2020/12/26 04:58:19;;;;;;;6.70;4.68;;;5.30;72.60;;;;;;5047257;28;20096;-64
2020/12/26 05:00:45;;;;;;;6.68;4.55;;;5.30;72.40;;;;;;5066453;28;20115;-64
2020/12/26 05:03:13;;;;;;;6.20;4.30;;;5.30;72.70;;;;;;5041969;28;20021;-64
2020/12/26 05:05:44;;;;;;;6.03;4.35;;;5.30;72.50;;;;;;5048480;28;20099;-64
2020/12/26 05:08:14;;;;;;;5.45;4.10;;;5.30;72.40;;;;;;5057279;28;20111;-64
2020/12/26 05:10:41;;;;;;;5.68;4.00;;;5.30;72.30;;;;;;5038410;28;20108;-64
2020/12/26 05:13:12;;;;;;;6.00;4.20;;;5.30;72.10;;;;;;5057839;28;20028;-64
2020/12/26 05:15:38;;;;;;;5.72;4.45;;;5.30;72.10;;;;;;5064368;28;20473;-64
2020/12/26 05:18:04;;;;;;;8.23;5.22;;;5.30;72.20;;;;;;5049674;28;20029;-64
2020/12/26 05:20:31;;;;;;;8.30;5.20;;;5.30;72.20;;;;;;5062269;28;20115;-64
2020/12/26 05:23:17;;;;;;;7.22;5.32;;;5.40;72.10;;;;;;5054935;28;20013;-64
2020/12/26 05:25:43;;;;;;;5.82;4.47;;;5.40;71.90;;;;;;5056365;28;20044;-64
2020/12/26 05:28:14;;;;;;;6.10;4.43;;;5.40;71.90;;;;;;5062351;28;20413;-64
2020/12/26 05:30:41;;;;;;;6.53;4.15;;;5.40;71.70;;;;;;5042911;28;20346;-64
2020/12/26 05:33:08;;;;;;;7.65;4.57;;;5.40;71.60;;;;;;5042977;28;20491;-64
2020/12/26 05:35:42;;;;;;;7.05;4.80;;;5.40;71.60;;;;;;5054649;28;20374;-64
2020/12/26 05:38:22;;;;;;;5.78;4.13;;;5.40;71.40;;;;;;5059818;28;20021;-64
2020/12/26 05:40:49;;;;;;;7.95;5.03;;;5.30;71.30;;;;;;5035518;28;20029;-64
2020/12/26 05:43:18;;;;;;;7.97;4.68;;;5.30;71.50;;;;;;5053187;28;20389;-64
2020/12/26 05:45:44;;;;;;;7.78;5.15;;;5.30;71.30;;;;;;5060248;28;20016;-64
2020/12/26 05:48:12;;;;;;;6.15;4.90;;;5.30;71.20;;;;;;5054430;28;20155;-64
2020/12/26 05:50:38;;;;;;;7.20;5.05;;;5.20;71.30;;;;;;5044395;28;20032;-64
2020/12/26 05:53:07;;;;;;;6.70;4.72;;;5.30;71.50;;;;;;5044166;28;20025;-64
2020/12/26 05:55:37;;;;;;;8.00;5.35;;;5.30;71.40;;;;;;5055409;28;20043;-64
2020/12/26 05:58:03;;;;;;;7.20;5.38;;;5.30;71.50;;;;;;5040644;28;20021;-64
2020/12/26 06:00:40;;;;;;;5.88;4.70;;;5.30;71.60;;;;;;5047234;28;20032;-64
2020/12/26 06:03:26;;;;;;;5.18;4.07;;;5.30;71.70;;;;;;5057236;28;20032;-64
2020/12/26 06:05:55;;;;;;;7.03;4.05;;;5.40;71.60;;;;;;5049268;28;20026;-64
2020/12/26 06:08:22;;;;;;;4.97;3.67;;;5.40;71.40;;;;;;5044059;28;20025;-64
2020/12/26 06:10:59;;;;;;;5.78;4.10;;;5.40;71.10;;;;;;5041322;28;20029;-64
2020/12/26 06:13:27;;;;;;;5.63;3.97;;;5.40;71.20;;;;;;5049732;28;20354;-64
2020/12/26 06:16:06;;;;;;;5.70;4.32;;;5.40;71.20;;;;;;5057098;28;20024;-63
2020/12/26 06:18:38;;;;;;;5.13;3.60;;;5.30;71.00;;;;;;5052070;28;20360;-63
2020/12/26 06:21:04;;;;;;;5.53;4.15;;;5.30;71.20;;;;;;5055270;28;20460;-63
2020/12/26 06:23:30;;;;;;;5.25;3.85;;;5.30;71.30;;;;;;5047603;28;20036;-63
2020/12/26 06:25:56;;;;;;;6.53;4.07;;;5.40;71.10;;;;;;5046067;28;20040;-63
2020/12/26 06:28:26;;;;;;;6.22;4.75;;;5.30;70.90;;;;;;5061435;28;20338;-63
2020/12/26 06:31:08;;;;;;;7.30;4.50;;;5.40;70.90;;;;;;5021095;28;20048;-63
2020/12/26 06:33:39;;;;;;;6.78;5.40;;;5.40;70.80;;;;;;5030885;28;20728;-63
2020/12/26 06:36:06;;;;;;;7.32;5.13;;;5.40;71.00;;;;;;5031795;28;20100;-64
2020/12/26 06:38:33;;;;;;;6.95;4.90;;;5.40;70.90;;;;;;5028839;28;20033;-64
2020/12/26 06:41:04;;;;;;;7.30;4.47;;;5.40;71.00;;;;;;5020830;28;20033;-64
2020/12/26 06:43:47;;;;;;;6.80;4.15;;;5.40;70.70;;;;;;5040267;28;20178;-65
2020/12/26 06:46:22;;;;;;;6.13;4.45;;;5.40;70.70;;;;;;5031208;28;20147;-65
2020/12/26 06:48:55;;;;;;;6.65;4.47;;;5.50;70.90;;;;;;5031364;28;20030;-65
2020/12/26 06:51:33;;;;;;;6.10;4.50;;;5.50;71.00;;;;;;5018484;28;20034;-64
2020/12/26 06:54:03;;;;;;;6.10;4.40;;;5.60;71.20;;;;;;5020865;28;20025;-64
2020/12/26 06:56:32;;;;;;;6.50;4.43;;;5.70;71.00;;;;;;5018844;28;20059;-65
2020/12/26 06:58:58;;;;;;;6.18;4.40;;;5.70;70.80;;;;;;5030886;28;20024;-65
2020/12/26 07:01:25;;;;;;;8.20;5.25;;;5.80;70.50;;;;;;5022235;28;20543;-66
2020/12/26 07:04:15;;;;;;;6.20;4.60;;;5.80;70.10;;;;;;5034261;28;20025;-64
2020/12/26 07:06:45;;;;;;;6.38;4.72;;;5.80;69.90;;;;;;5018031;28;20448;-66
2020/12/26 07:09:13;;;;;;;7.05;4.72;;;5.80;70.20;;;;;;5034066;28;20032;-63
2020/12/26 07:11:47;;;;;;;7.68;5.68;;;5.90;70.30;;;;;;5033294;28;20090;-63
2020/12/26 07:14:29;;;;;;;6.65;5.05;;;5.90;70.30;;;;;;5025647;28;20489;-64
2020/12/26 07:16:56;;;;;;;7.57;5.10;;;6.00;70.20;;;;;;5015875;28;20018;-64
2020/12/26 07:19:22;;;;;;;7.28;5.07;;;5.90;70.00;;;;;;5021583;28;20112;-64
2020/12/26 07:21:59;;;;;;;7.70;5.28;;;5.90;70.00;;;;;;5026820;28;20562;-64
2020/12/26 07:24:31;;;;;;;8.50;5.03;;;6.00;70.30;;;;;;5010184;28;20407;-64
2020/12/26 07:27:26;;;;;;;9.80;6.70;;;6.00;71.00;;;;;;5022370;28;20056;-64
2020/12/26 07:29:51;;;;;;;10.15;6.75;;;6.00;70.00;;;;;;5038427;28;20049;-64
2020/12/26 07:32:39;;;;;;;8.43;6.57;;;6.10;70.10;;;;;;5039623;28;20079;-64
2020/12/26 07:35:20;;;;;;;14.35;8.32;;;6.10;69.90;;;;;;5051431;28;20025;-64
2020/12/26 07:37:51;;;;;;;10.55;6.63;;;6.20;69.80;;;;;;5045411;28;20123;-64
2020/12/26 07:40:22;;;;;;;10.63;6.78;;;6.10;69.40;;;;;;5050352;28;20044;-64
2020/12/26 07:42:48;;;;;;;10.70;6.82;;;6.10;69.40;;;;;;5057031;28;20103;-64
2020/12/26 07:45:16;;;;;;;9.85;6.18;;;6.10;69.50;;;;;;5053464;28;20029;-64
2020/12/26 07:47:44;;;;;;;11.52;8.15;;;6.10;69.40;;;;;;5050156;28;20025;-64
2020/12/26 07:50:10;;;;;;;7.65;5.25;;;6.10;69.20;;;;;;5047172;28;20151;-64
2020/12/26 07:52:36;;;;;;;7.60;5.45;;;6.00;69.20;;;;;;5034672;28;20048;-64
2020/12/26 07:55:03;;;;;;;5.85;4.28;;;6.00;69.30;;;;;;5051809;28;20483;-64
2020/12/26 07:57:29;;;;;;;6.03;4.00;;;5.90;69.30;;;;;;5049863;28;20059;-64
2020/12/26 07:59:55;;;;;;;6.60;4.65;;;5.90;69.30;;;;;;5049744;28;20039;-64
2020/12/26 08:02:21;;;;;;;5.68;4.40;;;5.90;69.50;;;;;;5045836;28;20028;-64
2020/12/26 08:04:48;;;;;;;6.43;4.00;;;5.90;69.50;;;;;;5049888;28;20454;-64
2020/12/26 08:07:15;;;;;;;5.65;4.20;;;5.80;69.50;;;;;;5049509;28;20017;-64
2020/12/26 08:10:07;;;;;;;6.45;4.60;;;5.90;69.60;;;;;;5051919;28;20075;-65
2020/12/26 08:12:33;;;;;;;5.03;3.90;;;5.80;69.50;;;;;;5043026;28;20037;-63
2020/12/26 08:15:00;;;;;;;6.25;4.20;;;5.90;69.60;;;;;;5056976;28;20025;-63
2020/12/26 08:17:27;;;;;;;5.30;3.63;;;5.80;69.40;;;;;;5041823;28;21748;-63
2020/12/26 08:19:57;;;;;;;5.25;4.45;;;5.90;69.50;;;;;;5053805;28;20040;-64
2020/12/26 08:22:23;;;;;;;4.53;3.63;;;5.80;69.30;;;;;;5046130;28;20517;-64
2020/12/26 08:24:50;;;;;;;5.15;3.80;;;5.80;69.30;;;;;;5052997;28;20028;-64
2020/12/26 08:27:17;;;;;;;5.60;4.07;;;5.80;69.40;;;;;;5053820;28;20029;-64
2020/12/26 08:29:44;;;;;;;6.60;4.78;;;5.80;69.50;;;;;;5052059;28;20431;-64
2020/12/26 08:32:11;;;;;;;5.15;4.03;;;5.90;70.10;;;;;;5046218;28;20037;-62
2020/12/26 08:34:43;;;;;;;7.85;4.68;;;5.90;69.20;;;;;;5048179;28;20056;-63
2020/12/26 08:37:20;;;;;;;6.55;4.70;;;5.90;69.30;;;;;;5050228;28;20029;-63
2020/12/26 08:39:58;;;;;;;6.63;4.43;;;5.90;69.10;;;;;;5043045;28;20026;-63
2020/12/26 08:42:25;;;;;;;6.60;4.80;;;5.90;68.90;;;;;;5043826;28;20052;-63
2020/12/26 08:44:51;;;;;;;5.97;4.15;;;5.90;69.00;;;;;;5050476;28;20032;-63
2020/12/26 08:47:31;;;;;;;6.35;4.40;;;5.90;68.70;;;;;;5042018;28;20453;-63
2020/12/26 08:49:57;;;;;;;5.00;4.22;;;5.90;68.60;;;;;;5049961;28;20108;-64
2020/12/26 08:52:26;;;;;;;6.72;4.30;;;5.80;68.80;;;;;;5060787;28;20075;-64
2020/12/26 08:55:09;;;;;;;6.78;4.40;;;5.80;68.60;;;;;;5049685;28;20025;-64
2020/12/26 08:57:38;;;;;;;5.78;4.13;;;5.80;68.60;;;;;;5063914;28;20046;-64
2020/12/26 09:00:21;;;;;;;6.65;4.28;;;5.80;68.70;;;;;;5053678;28;20029;-64
2020/12/26 09:02:51;;;;;;;5.63;4.10;;;5.80;68.70;;;;;;5058806;28;20082;-64
2020/12/26 09:05:20;;;;;;;6.90;4.30;;;5.80;69.30;;;;;;5052400;28;20461;-64
2020/12/26 09:07:46;;;;;;;5.28;4.20;;;5.80;68.70;;;;;;5044178;28;20380;-64
2020/12/26 09:10:12;;;;;;;6.40;4.10;;;5.80;68.80;;;;;;5056493;28;20128;-64
2020/12/26 09:12:37;;;;;;;5.80;3.92;;;5.80;68.60;;;;;;5052453;28;20040;-64
2020/12/26 09:15:03;;;;;;;4.75;3.95;;;5.90;68.70;;;;;;5052766;28;20094;-64
2020/12/26 09:17:29;;;;;;;5.28;4.30;;;5.90;68.90;;;;;;5051185;28;20043;-64
2020/12/26 09:19:57;;;;;;;4.07;3.35;;;5.90;68.90;;;;;;5053468;28;20041;-64
2020/12/26 09:22:28;;;;;;;4.95;3.80;;;5.90;68.80;;;;;;5040268;28;20021;-64
2020/12/26 09:24:53;;;;;;;4.68;3.50;;;6.00;68.50;;;;;;5049519;28;20022;-64
2020/12/26 09:27:22;;;;;;;3.72;3.35;;;5.90;68.30;;;;;;5055674;28;20373;-64
2020/12/26 09:29:54;;;;;;;4.40;3.67;;;5.90;68.30;;;;;;5048661;28;20053;-64
2020/12/26 09:32:19;;;;;;;4.40;3.17;;;5.80;68.40;;;;;;5045134;28;20047;-64
2020/12/26 09:34:45;;;;;;;3.58;3.20;;;5.80;68.70;;;;;;5053353;28;20037;-64
2020/12/26 09:37:11;;;;;;;4.15;3.50;;;5.80;68.60;;;;;;5048418;28;20029;-64
2020/12/26 09:39:38;;;;;;;3.90;3.17;;;5.70;68.90;;;;;;5047570;28;20044;-64
2020/12/26 09:42:04;;;;;;;4.38;3.63;;;5.70;68.90;;;;;;5051564;28;20112;-64
2020/12/26 09:44:30;;;;;;;4.15;3.50;;;5.70;69.00;;;;;;5047012;28;20041;-64
2020/12/26 09:47:04;;;;;;;5.70;3.55;;;5.70;69.10;;;;;;5055766;28;20036;-64
2020/12/26 09:49:29;;;;;;;4.22;3.40;;;5.70;69.00;;;;;;5047283;28;20032;-64
2020/12/26 09:51:55;;;;;;;4.40;3.42;;;5.60;69.00;;;;;;5049897;28;20662;-64
2020/12/26 09:54:21;;;;;;;6.25;4.13;;;5.60;68.90;;;;;;5046438;28;20094;-64
2020/12/26 09:56:47;;;;;;;3.75;3.30;;;5.60;68.80;;;;;;5049095;28;20028;-64
2020/12/26 09:59:13;;;;;;;4.78;3.88;;;5.60;69.00;;;;;;5052181;28;20104;-64
2020/12/26 10:01:41;;;;;;;4.60;3.63;;;5.60;68.70;;;;;;5050754;28;20042;-64
2020/12/26 10:04:07;;;;;;;4.53;3.55;;;5.60;68.60;;;;;;5049348;28;20381;-64
2020/12/26 10:06:33;;;;;;;7.53;3.97;;;5.60;68.40;;;;;;5048469;28;20036;-66
2020/12/26 10:08:58;;;;;;;5.00;3.63;;;5.60;68.30;;;;;;5047188;28;20419;-64
2020/12/26 10:11:24;;;;;;;4.88;4.00;;;5.60;68.10;;;;;;5045657;28;20029;-64
2020/12/26 10:13:50;;;;;;;4.55;3.80;;;5.60;68.00;;;;;;5046268;28;20040;-64
2020/12/26 10:16:17;;;;;;;4.50;4.00;;;5.60;67.90;;;;;;5045980;28;20025;-64
2020/12/26 10:18:43;;;;;;;4.32;3.70;;;5.60;67.70;;;;;;5048719;28;20024;-63
2020/12/26 10:21:09;;;;;;;5.38;3.55;;;5.60;67.80;;;;;;5050066;28;20029;-64
2020/12/26 10:23:35;;;;;;;4.18;3.53;;;5.60;67.50;;;;;;5044639;28;20381;-62
2020/12/26 10:26:07;;;;;;;5.72;3.85;;;5.60;67.20;;;;;;5049140;28;20078;-64
2020/12/26 10:28:33;;;;;;;4.40;3.88;;;5.60;67.20;;;;;;5050821;28;20037;-64
2020/12/26 10:31:00;;;;;;;4.00;3.60;;;5.60;67.10;;;;;;5048431;28;20028;-64
2020/12/26 10:33:26;;;;;;;5.28;4.10;;;5.60;67.10;;;;;;5051501;28;20075;-63
2020/12/26 10:35:52;;;;;;;4.35;3.67;;;5.50;67.00;;;;;;5057632;28;20036;-64
2020/12/26 10:38:18;;;;;;;4.88;4.28;;;5.50;67.10;;;;;;5047631;28;20032;-64
2020/12/26 10:40:44;;;;;;;6.28;4.18;;;5.50;67.10;;;;;;5053655;28;20384;-63
2020/12/26 10:43:13;;;;;;;4.18;3.78;;;5.50;67.00;;;;;;5047768;28;20111;-64
2020/12/26 10:45:38;;;;;;;5.40;4.68;;;5.50;66.80;;;;;;5046721;28;20086;-65
2020/12/26 10:48:04;;;;;;;5.03;3.85;;;5.50;66.70;;;;;;5049137;28;20408;-63
2020/12/26 10:50:29;;;;;;;4.75;4.20;;;5.50;66.70;;;;;;5052996;28;20029;-63
2020/12/26 10:52:55;;;;;;;4.80;3.90;;;5.50;66.90;;;;;;5051806;28;20077;-63
2020/12/26 10:55:21;;;;;;;4.40;3.63;;;5.50;66.80;;;;;;5045919;28;20022;-63
2020/12/26 10:57:47;;;;;;;4.13;3.45;;;5.50;66.80;;;;;;5055780;28;20029;-63
2020/12/26 11:00:13;;;;;;;5.70;3.53;;;5.50;66.60;;;;;;5050130;28;20033;-63
2020/12/26 11:02:39;;;;;;;4.82;3.90;;;5.50;66.50;;;;;;5044431;28;20042;-63
2020/12/26 11:05:05;;;;;;;4.45;3.03;;;5.50;66.50;;;;;;5048143;28;20024;-64
2020/12/26 11:07:35;;;;;;;4.05;3.00;;;5.50;66.50;;;;;;5043822;28;20037;-64
2020/12/26 11:10:01;;;;;;;3.13;2.83;;;5.50;66.40;;;;;;5050860;28;20025;-64
2020/12/26 11:12:27;;;;;;;4.32;2.65;;;5.50;66.50;;;;;;5039708;28;20100;-63
2020/12/26 11:14:52;;;;;;;2.97;2.70;;;5.50;66.40;;;;;;5042527;28;20128;-63
2020/12/26 11:17:18;;;;;;;4.38;3.10;;;5.50;66.40;;;;;;5047289;28;20036;-63
2020/12/26 11:19:46;;;;;;;4.60;3.35;;;5.50;66.20;;;;;;5052381;28;20120;-65
2020/12/26 11:22:12;;;;;;;2.80;2.60;;;5.50;66.20;;;;;;5051290;28;20040;-65
2020/12/26 11:24:38;;;;;;;3.40;2.80;;;5.50;66.20;;;;;;5050846;28;20033;-64
2020/12/26 11:27:04;;;;;;;2.92;2.67;;;5.50;66.90;;;;;;5047712;28;20032;-65
2020/12/26 11:29:31;;;;;;;3.70;2.97;;;5.50;66.30;;;;;;5037393;28;20037;-65
2020/12/26 11:31:59;;;;;;;3.30;3.00;;;5.50;66.30;;;;;;5013562;28;20029;-65
2020/12/26 11:34:25;;;;;;;3.70;2.88;;;5.50;66.40;;;;;;5030827;28;20044;-66
2020/12/26 11:36:51;;;;;;;10.13;6.80;;;5.50;66.30;;;;;;5024836;28;20478;-65
2020/12/26 11:39:17;;;;;;;4.65;3.40;;;5.60;66.40;;;;;;5013691;28;20390;-63
2020/12/26 11:41:43;;;;;;;4.82;3.35;;;5.60;66.40;;;;;;5027531;28;20033;-63
2020/12/26 11:44:08;;;;;;;3.75;2.85;;;5.70;66.30;;;;;;5022808;28;20041;-63
2020/12/26 11:46:34;;;;;;;3.15;2.80;;;5.70;66.30;;;;;;5022290;28;20057;-63
2020/12/26 11:49:01;;;;;;;3.40;2.83;;;5.80;66.10;;;;;;5017061;28;20030;-63
2020/12/26 11:51:27;;;;;;;3.35;3.00;;;5.80;65.90;;;;;;5023828;28;20044;-65
2020/12/26 11:53:52;;;;;;;3.60;3.00;;;5.80;65.70;;;;;;5018368;28;20163;-64
2020/12/26 11:56:18;;;;;;;3.70;3.15;;;5.90;65.60;;;;;;5017198;28;20033;-64
2020/12/26 11:58:44;;;;;;;3.22;2.85;;;5.90;65.30;;;;;;5021384;28;20358;-64
2020/12/26 12:01:10;;;;;;;3.22;2.92;;;6.00;65.20;;;;;;5019207;28;20026;-64
2020/12/26 12:03:36;;;;;;;2.75;2.40;;;6.00;65.00;;;;;;5025614;28;20028;-64
2020/12/26 12:06:03;;;;;;;5.78;4.00;;;6.10;65.20;;;;;;5013053;28;20088;-64
2020/12/26 12:08:29;;;;;;;3.97;3.10;;;6.10;65.30;;;;;;5019899;28;20049;-64
2020/12/26 12:10:54;;;;;;;3.00;2.63;;;6.10;65.10;;;;;;5027231;28;20437;-64
2020/12/26 12:13:20;;;;;;;2.78;2.55;;;6.20;65.10;;;;;;5021031;28;20030;-64
2020/12/26 12:15:46;;;;;;;3.63;2.83;;;6.20;64.90;;;;;;5025345;28;20091;-64
2020/12/26 12:18:12;;;;;;;2.70;2.47;;;6.20;64.70;;;;;;5029321;28;20060;-64
2020/12/26 12:20:38;;;;;;;3.55;3.03;;;6.20;64.70;;;;;;5026633;28;20029;-64
2020/12/26 12:23:04;;;;;;;2.70;2.50;;;6.20;64.60;;;;;;5042156;28;20413;-64
2020/12/26 12:25:30;;;;;;;3.30;2.80;;;6.20;64.80;;;;;;5031658;28;20033;-64
2020/12/26 12:27:57;;;;;;;3.92;3.20;;;6.20;65.00;;;;;;5035212;28;20076;-64
2020/12/26 12:30:24;;;;;;;5.47;3.10;;;6.20;64.90;;;;;;5036880;28;20544;-64
2020/12/26 12:32:50;;;;;;;5.88;3.60;;;6.20;64.90;;;;;;5027876;28;20037;-64
2020/12/26 12:35:16;;;;;;;4.32;3.60;;;6.30;65.00;;;;;;5019885;28;20377;-64
2020/12/26 12:37:49;;;;;;;4.28;3.55;;;6.30;64.90;;;;;;5034831;28;20022;-64
2020/12/26 12:40:16;;;;;;;4.47;3.92;;;6.30;64.90;;;;;;5017822;28;20068;-64
2020/12/26 12:42:42;;;;;;;6.97;4.47;;;6.40;65.00;;;;;;5021985;28;20065;-64
2020/12/26 12:45:08;;;;;;;7.63;5.70;;;6.40;64.90;;;;;;5034745;28;20055;-64
2020/12/26 12:47:34;;;;;;;8.60;5.28;;;6.40;64.90;;;;;;5015865;28;20459;-64
2020/12/26 12:50:00;;;;;;;8.10;4.85;;;6.50;64.60;;;;;;5008967;28;20030;-64
2020/12/26 12:52:26;;;;;;;12.15;7.32;;;6.50;64.40;;;;;;5025124;28;20036;-64
2020/12/26 12:54:51;;;;;;;7.75;5.80;;;6.50;64.10;;;;;;5025978;28;20048;-64
2020/12/26 12:57:17;;;;;;;11.07;8.35;;;6.50;63.90;;;;;;5033033;28;20029;-64
2020/12/26 12:59:43;;;;;;;8.88;6.40;;;6.50;64.00;;;;;;5033249;28;20033;-64